Time;durP1;ratioP1;P1;durP2;ratioP2;P2;SDS_P1;SDS_P2;PMS_P1;PMS_P2;Temp;Humidity;BMP_temperature;BMP_pressure;BME280_temperature;BME280_humidity;BME280_pressure;Samples;Min_cycle;Max_cycle;Signal;HPM_P1;HPM_P2
2021/12/06 00:00:09;;;;;;;25.55;13.75;;;;;;;;;;5054475;28;20036;-45
2021/12/06 00:02:35;;;;;;;22.60;12.55;;;;;;;;;;5054184;28;20122;-45
2021/12/06 00:05:00;;;;;;;23.25;12.57;;;;;;;;;;5054128;28;20061;-45
2021/12/06 00:07:26;;;;;;;23.05;12.57;;;;;;;;;;5054335;28;20074;-46
2021/12/06 00:09:51;;;;;;;22.70;13.13;;;;;;;;;;5054034;28;20025;-45
2021/12/06 00:12:17;;;;;;;20.15;11.40;;;;;;;;;;5053287;28;20025;-43
2021/12/06 00:14:43;;;;;;;22.13;11.73;;;;;;;;;;5053881;28;20032;-45
2021/12/06 00:17:14;;;;;;;20.92;11.98;;;;;;;;;;5053884;28;20029;-43
2021/12/06 00:19:41;;;;;;;26.08;12.05;;;;;;;;;;5053755;28;20497;-44
2021/12/06 00:22:11;;;;;;;21.42;11.43;;;;;;;;;;5053899;28;20017;-43
2021/12/06 00:24:37;;;;;;;20.67;11.02;;;;;;;;;;5053941;28;20115;-45
2021/12/06 00:27:03;;;;;;;20.33;10.32;;;;;;;;;;5053976;28;20029;-43
2021/12/06 00:29:29;;;;;;;20.08;11.25;;;;;;;;;;5053721;28;20035;-44
2021/12/06 00:31:55;;;;;;;21.00;11.82;;;;;;;;;;5053580;28;20120;-43
2021/12/06 00:34:22;;;;;;;20.42;11.40;;;;;;;;;;5053472;28;20041;-45
2021/12/06 00:37:04;;;;;;;21.42;11.13;;;;;;;;;;5053607;28;20505;-45
2021/12/06 00:39:30;;;;;;;16.63;9.90;;;;;;;;;;5053564;28;20070;-45
2021/12/06 00:41:55;;;;;;;14.63;9.50;;;;;;;;;;5053507;28;20025;-45
2021/12/06 00:44:21;;;;;;;18.95;11.00;;;;;;;;;;5053681;28;20067;-44
2021/12/06 00:46:46;;;;;;;17.05;10.30;;;;;;;;;;5053745;28;20025;-45
2021/12/06 00:49:12;;;;;;;19.60;11.23;;;;;;;;;;5053332;28;20025;-46
2021/12/06 00:51:37;;;;;;;16.23;10.02;;;;;;;;;;5053336;28;20070;-43
2021/12/06 00:54:03;;;;;;;20.58;10.50;;;;;;;;;;5053466;28;20112;-41
2021/12/06 00:56:29;;;;;;;17.05;10.30;;;;;;;;;;5053186;28;20062;-42
2021/12/06 00:58:54;;;;;;;19.17;10.93;;;;;;;;;;5053126;28;20028;-41
2021/12/06 01:01:20;;;;;;;19.80;11.13;;;;;;;;;;5053155;28;20025;-46
2021/12/06 01:03:46;;;;;;;15.20;10.00;;;;;;;;;;5052065;28;20043;-45
2021/12/06 01:06:12;;;;;;;18.40;10.60;;;;;;;;;;5052611;28;20052;-47
2021/12/06 01:08:39;;;;;;;18.00;10.85;;;;;;;;;;5035186;28;20025;-45
2021/12/06 01:11:05;;;;;;;17.08;11.07;;;;;;;;;;5052865;28;20029;-44
2021/12/06 01:13:31;;;;;;;17.30;10.70;;;;;;;;;;5052893;28;20028;-43
2021/12/06 01:15:57;;;;;;;17.55;10.65;;;;;;;;;;5053233;28;20025;-45
2021/12/06 01:18:23;;;;;;;17.17;10.88;;;;;;;;;;5051855;28;20386;-45
2021/12/06 01:21:07;;;;;;;17.38;10.15;;;;;;;;;;5053111;28;20064;-46
2021/12/06 01:23:47;;;;;;;18.48;10.57;;;;;;;;;;5052995;28;20061;-47
2021/12/06 01:26:32;;;;;;;15.98;10.30;;;;;;;;;;5053040;28;20025;-47
2021/12/06 01:29:10;;;;;;;15.57;9.95;;;;;;;;;;5052768;28;20037;-48
2021/12/06 01:31:51;;;;;;;17.08;10.70;;;;;;;;;;5052825;28;20032;-46
2021/12/06 01:39:48;;;;;;;13.80;9.65;;;;;;;;;;5052776;28;20122;-43
2021/12/06 01:42:13;;;;;;;14.85;9.40;;;;;;;;;;5052510;28;20049;-41
2021/12/06 01:44:45;;;;;;;17.83;9.75;;;;;;;;;;5052437;28;20029;-49
2021/12/06 01:47:15;;;;;;;15.73;9.80;;;;;;;;;;5052642;28;20037;-41
2021/12/06 01:49:48;;;;;;;15.77;9.67;;;;;;;;;;5034483;28;20454;-44
2021/12/06 01:52:18;;;;;;;16.10;10.13;;;;;;;;;;5052705;28;20059;-41
2021/12/06 01:54:44;;;;;;;16.05;9.55;;;;;;;;;;5052586;28;20099;-47
2021/12/06 01:57:10;;;;;;;16.23;9.88;;;;;;;;;;5052550;28;20478;-44
2021/12/06 01:59:35;;;;;;;15.82;10.02;;;;;;;;;;5052369;28;20458;-41
2021/12/06 02:02:01;;;;;;;14.75;9.77;;;;;;;;;;5052572;28;20045;-46
2021/12/06 02:04:29;;;;;;;16.55;9.90;;;;;;;;;;5052490;28;20017;-46
2021/12/06 02:06:56;;;;;;;17.02;10.35;;;;;;;;;;5052504;28;20048;-46
2021/12/06 02:09:25;;;;;;;15.30;9.93;;;;;;;;;;5034673;28;20029;-45
2021/12/06 02:11:52;;;;;;;18.23;10.47;;;;;;;;;;5052118;28;20052;-44
2021/12/06 02:17:16;;;;;;;15.10;9.57;;;;;;;;;;5052103;28;20517;-43
2021/12/06 02:19:48;;;;;;;17.92;10.13;;;;;;;;;;5051932;28;20065;-44
2021/12/06 02:22:23;;;;;;;16.52;9.48;;;;;;;;;;5052135;28;20021;-44
2021/12/06 02:24:50;;;;;;;15.88;9.80;;;;;;;;;;5051986;28;20527;-46
2021/12/06 02:27:16;;;;;;;14.82;9.70;;;;;;;;;;5052041;28;20029;-47
2021/12/06 02:29:45;;;;;;;15.50;9.20;;;;;;;;;;5051936;28;20021;-41
2021/12/06 02:32:12;;;;;;;15.90;10.25;;;;;;;;;;5051868;28;20055;-41
2021/12/06 02:34:41;;;;;;;18.70;10.50;;;;;;;;;;5053629;28;20079;-41
2021/12/06 02:37:09;;;;;;;15.88;10.05;;;;;;;;;;5056185;28;20111;-45
2021/12/06 02:39:35;;;;;;;16.10;10.13;;;;;;;;;;5055825;28;20028;-44
2021/12/06 02:42:01;;;;;;;17.00;10.60;;;;;;;;;;5055907;28;20123;-41
2021/12/06 02:47:56;;;;;;;14.60;9.90;;;;;;;;;;5056433;28;20124;-41
2021/12/06 02:50:33;;;;;;;16.45;10.70;;;;;;;;;;5055576;28;20052;-47
2021/12/06 02:53:41;;;;;;;17.33;10.35;;;;;;;;;;5055784;28;20112;-43
2021/12/06 02:56:31;;;;;;;17.27;11.18;;;;;;;;;;5055510;28;20060;-45
2021/12/06 02:59:05;;;;;;;18.83;11.15;;;;;;;;;;5055499;28;20060;-43
2021/12/06 03:01:54;;;;;;;18.92;11.10;;;;;;;;;;5055434;28;20025;-44
2021/12/06 03:07:41;;;;;;;21.98;12.05;;;;;;;;;;5055656;28;20126;-48
2021/12/06 03:10:09;;;;;;;18.00;11.23;;;;;;;;;;5055242;28;20056;-41
2021/12/06 03:12:35;;;;;;;19.95;11.27;;;;;;;;;;5055489;28;20025;-43
2021/12/06 03:15:02;;;;;;;21.00;12.18;;;;;;;;;;5055175;28;20107;-43
2021/12/06 03:17:31;;;;;;;20.35;11.38;;;;;;;;;;5055121;28;20025;-45
2021/12/06 03:19:58;;;;;;;20.02;11.90;;;;;;;;;;5055429;28;20029;-45
2021/12/06 03:22:24;;;;;;;18.90;10.98;;;;;;;;;;5055039;28;20059;-44
2021/12/06 03:24:50;;;;;;;19.60;10.98;;;;;;;;;;5055031;28;20046;-44
2021/12/06 03:27:17;;;;;;;17.70;10.70;;;;;;;;;;5055112;28;20108;-41
2021/12/06 03:29:43;;;;;;;17.60;10.75;;;;;;;;;;5055122;28;20032;-45
2021/12/06 03:32:09;;;;;;;19.10;10.85;;;;;;;;;;5055210;28;20029;-45
2021/12/06 03:34:35;;;;;;;17.40;10.20;;;;;;;;;;5054633;28;20053;-45
2021/12/06 03:37:04;;;;;;;18.55;10.32;;;;;;;;;;5054758;28;20025;-44
2021/12/06 03:39:34;;;;;;;19.55;10.95;;;;;;;;;;5055120;28;20025;-46
2021/12/06 03:42:02;;;;;;;18.02;10.43;;;;;;;;;;5054735;28;20051;-43
2021/12/06 03:44:29;;;;;;;19.00;10.48;;;;;;;;;;5054669;28;20040;-44
2021/12/06 03:47:04;;;;;;;18.77;10.18;;;;;;;;;;5053430;28;20032;-43
2021/12/06 03:49:30;;;;;;;19.67;10.15;;;;;;;;;;5054638;28;20098;-46
2021/12/06 03:51:56;;;;;;;23.00;10.95;;;;;;;;;;5054604;28;20057;-41
2021/12/06 03:54:26;;;;;;;22.50;12.27;;;;;;;;;;5054382;28;20061;-44
2021/12/06 03:56:52;;;;;;;18.98;10.98;;;;;;;;;;5054845;28;20112;-40
2021/12/06 03:59:17;;;;;;;23.60;11.50;;;;;;;;;;5054331;28;20541;-41
2021/12/06 04:01:43;;;;;;;19.25;10.63;;;;;;;;;;5054386;28;20024;-41
2021/12/06 04:04:11;;;;;;;21.45;11.70;;;;;;;;;;5054601;28;20127;-43
2021/12/06 04:06:39;;;;;;;23.58;12.05;;;;;;;;;;5054591;28;20378;-46
2021/12/06 04:09:06;;;;;;;19.83;10.77;;;;;;;;;;5054444;28;20078;-43
2021/12/06 04:11:32;;;;;;;20.92;11.13;;;;;;;;;;5054175;28;20098;-46
2021/12/06 04:13:58;;;;;;;27.58;12.80;;;;;;;;;;5054238;28;20021;-43
2021/12/06 04:16:24;;;;;;;23.13;12.98;;;;;;;;;;5054074;28;20025;-42
2021/12/06 04:18:50;;;;;;;22.77;12.15;;;;;;;;;;5053981;28;20041;-44
2021/12/06 04:21:17;;;;;;;21.98;11.68;;;;;;;;;;5053883;28;20486;-44
2021/12/06 04:23:43;;;;;;;21.08;11.45;;;;;;;;;;5054134;28;20029;-43
2021/12/06 04:26:09;;;;;;;20.88;11.13;;;;;;;;;;5053749;28;20470;-47
2021/12/06 04:28:35;;;;;;;22.70;13.02;;;;;;;;;;5053794;28;20021;-45
2021/12/06 04:31:03;;;;;;;20.20;11.70;;;;;;;;;;5054050;28;20024;-43
2021/12/06 04:33:28;;;;;;;23.90;11.38;;;;;;;;;;5053500;28;20106;-43
2021/12/06 04:35:54;;;;;;;21.88;11.70;;;;;;;;;;5053657;28;20025;-44
2021/12/06 04:38:21;;;;;;;19.13;11.02;;;;;;;;;;5053868;28;20029;-43
2021/12/06 04:40:48;;;;;;;19.42;11.32;;;;;;;;;;5053626;28;20047;-41
2021/12/06 04:43:14;;;;;;;21.23;11.63;;;;;;;;;;5053660;28;20032;-45
2021/12/06 04:45:40;;;;;;;21.08;11.80;;;;;;;;;;5053494;28;20025;-43
2021/12/06 04:48:08;;;;;;;20.40;11.50;;;;;;;;;;5053440;28;20025;-43
2021/12/06 04:50:35;;;;;;;20.27;11.30;;;;;;;;;;5053473;28;20029;-41
2021/12/06 04:53:12;;;;;;;17.50;10.88;;;;;;;;;;5053336;28;20033;-41
2021/12/06 04:55:43;;;;;;;23.55;12.48;;;;;;;;;;5053656;28;20029;-40
2021/12/06 04:58:14;;;;;;;23.13;12.77;;;;;;;;;;5053313;28;20037;-42
2021/12/06 05:00:49;;;;;;;26.80;13.77;;;;;;;;;;5053636;28;20546;-41
2021/12/06 05:03:16;;;;;;;27.77;14.32;;;;;;;;;;5053198;28;20033;-45
2021/12/06 05:06:05;;;;;;;28.00;15.02;;;;;;;;;;5035357;28;20029;-41
2021/12/06 05:08:38;;;;;;;28.15;14.70;;;;;;;;;;5053109;28;20043;-42
2021/12/06 05:11:06;;;;;;;30.77;15.73;;;;;;;;;;5053338;28;20457;-45
2021/12/06 05:13:34;;;;;;;38.13;18.65;;;;;;;;;;5053137;28;20063;-41
2021/12/06 05:15:59;;;;;;;36.75;17.13;;;;;;;;;;5053070;28;20060;-43
2021/12/06 05:18:25;;;;;;;37.70;18.60;;;;;;;;;;5052805;28;20067;-43
2021/12/06 05:20:51;;;;;;;36.90;17.35;;;;;;;;;;5053081;28;20075;-42
2021/12/06 05:23:17;;;;;;;31.52;16.75;;;;;;;;;;5053137;28;20112;-46
2021/12/06 05:25:43;;;;;;;32.92;17.10;;;;;;;;;;5052727;28;20032;-45
2021/12/06 05:28:09;;;;;;;29.15;14.52;;;;;;;;;;5052803;28;20025;-42
2021/12/06 05:30:37;;;;;;;28.65;15.30;;;;;;;;;;5052692;28;20378;-45
2021/12/06 05:33:03;;;;;;;27.90;15.20;;;;;;;;;;5052567;28;20048;-40
2021/12/06 05:35:29;;;;;;;33.00;16.15;;;;;;;;;;5052585;28;20033;-46
2021/12/06 05:37:58;;;;;;;30.35;15.13;;;;;;;;;;5052579;28;20028;-41
2021/12/06 05:40:28;;;;;;;27.55;14.07;;;;;;;;;;5052857;28;20032;-40
2021/12/06 05:42:55;;;;;;;30.25;15.35;;;;;;;;;;5052502;28;20036;-42
2021/12/06 05:45:23;;;;;;;29.27;14.70;;;;;;;;;;5052628;28;20035;-40
2021/12/06 05:47:49;;;;;;;29.42;14.63;;;;;;;;;;5052359;28;20029;-45
2021/12/06 05:50:16;;;;;;;27.88;14.02;;;;;;;;;;5052303;28;20029;-47
2021/12/06 05:52:42;;;;;;;27.77;14.63;;;;;;;;;;5052623;28;20078;-44
2021/12/06 05:55:09;;;;;;;28.02;15.00;;;;;;;;;;5052539;28;20033;-44
2021/12/06 05:57:36;;;;;;;28.02;14.65;;;;;;;;;;5052457;28;20108;-41
2021/12/06 06:00:05;;;;;;;29.48;15.52;;;;;;;;;;5052208;28;20025;-42
2021/12/06 06:02:31;;;;;;;29.52;15.10;;;;;;;;;;5052209;28;20466;-42
2021/12/06 06:04:56;;;;;;;29.55;15.55;;;;;;;;;;5034354;28;20131;-43
2021/12/06 06:07:22;;;;;;;32.58;15.85;;;;;;;;;;5052169;28;20523;-41
2021/12/06 06:09:48;;;;;;;32.92;17.27;;;;;;;;;;5051647;28;20029;-41
2021/12/06 06:12:13;;;;;;;37.53;18.17;;;;;;;;;;5052390;28;20569;-41
2021/12/06 06:14:39;;;;;;;39.55;19.10;;;;;;;;;;5052335;28;20028;-45
2021/12/06 06:17:10;;;;;;;39.45;18.63;;;;;;;;;;5050662;28;20409;-41
2021/12/06 06:19:38;;;;;;;36.30;19.13;;;;;;;;;;5052396;28;20040;-44
2021/12/06 06:22:04;;;;;;;33.83;19.48;;;;;;;;;;5052274;28;20021;-42
2021/12/06 06:24:29;;;;;;;38.55;19.85;;;;;;;;;;5051973;28;20032;-45
2021/12/06 06:26:55;;;;;;;40.50;20.63;;;;;;;;;;5051995;28;20021;-42
2021/12/06 06:29:20;;;;;;;36.88;18.17;;;;;;;;;;5051961;28;20025;-42
2021/12/06 06:31:46;;;;;;;37.00;17.92;;;;;;;;;;5052230;28;20104;-41
2021/12/06 06:34:11;;;;;;;35.60;17.77;;;;;;;;;;5051701;28;20045;-43
2021/12/06 06:36:37;;;;;;;36.30;18.55;;;;;;;;;;5052104;28;20028;-43
2021/12/06 06:39:07;;;;;;;33.05;16.65;;;;;;;;;;5051910;28;20025;-43
2021/12/06 06:41:33;;;;;;;38.73;19.50;;;;;;;;;;5051696;28;20419;-48
2021/12/06 06:43:59;;;;;;;30.15;16.00;;;;;;;;;;5051864;28;20262;-44
2021/12/06 06:46:24;;;;;;;29.80;16.00;;;;;;;;;;5051802;28;20053;-50
2021/12/06 06:48:50;;;;;;;29.63;15.55;;;;;;;;;;5051643;28;20473;-41
2021/12/06 06:51:16;;;;;;;31.70;16.60;;;;;;;;;;5051992;28;20057;-47
2021/12/06 06:53:41;;;;;;;28.15;15.52;;;;;;;;;;5051889;28;20029;-40
2021/12/06 06:56:07;;;;;;;29.23;16.23;;;;;;;;;;5051713;28;20025;-41
2021/12/06 06:58:32;;;;;;;26.65;15.40;;;;;;;;;;5051770;28;20033;-44
2021/12/06 07:00:58;;;;;;;36.55;18.30;;;;;;;;;;5051865;28;20159;-45
2021/12/06 07:03:24;;;;;;;25.52;14.50;;;;;;;;;;5033816;28;20170;-49
2021/12/06 07:05:50;;;;;;;31.80;16.25;;;;;;;;;;5051941;28;20139;-41
2021/12/06 07:08:15;;;;;;;24.33;14.95;;;;;;;;;;5051615;28;20484;-41
2021/12/06 07:10:41;;;;;;;31.10;15.57;;;;;;;;;;5051667;28;20025;-41
2021/12/06 07:13:10;;;;;;;28.83;14.82;;;;;;;;;;5051538;28;20448;-41
2021/12/06 07:15:36;;;;;;;27.92;15.82;;;;;;;;;;5051828;28;20500;-43
2021/12/06 07:18:04;;;;;;;21.67;13.50;;;;;;;;;;5051454;28;20021;-46
2021/12/06 07:20:32;;;;;;;23.60;13.95;;;;;;;;;;5053260;28;20025;-41
2021/12/06 07:22:58;;;;;;;26.80;13.77;;;;;;;;;;5055073;28;20470;-41
2021/12/06 07:25:24;;;;;;;22.40;13.93;;;;;;;;;;5055014;28;20064;-41
2021/12/06 07:27:51;;;;;;;25.02;14.65;;;;;;;;;;5055132;28;20067;-41
2021/12/06 07:30:18;;;;;;;24.83;14.27;;;;;;;;;;5054828;28;20029;-41
2021/12/06 07:32:44;;;;;;;23.10;14.07;;;;;;;;;;5054617;28;20102;-43
2021/12/06 07:35:11;;;;;;;21.42;12.18;;;;;;;;;;5054520;28;20041;-42
2021/12/06 07:37:38;;;;;;;21.08;12.70;;;;;;;;;;5053530;28;20039;-41
2021/12/06 07:40:08;;;;;;;26.67;14.38;;;;;;;;;;5053544;28;20477;-40
2021/12/06 07:42:34;;;;;;;;;;;;;;;;;;5053829;28;20025;-42
2021/12/06 07:44:59;;;;;;;22.27;12.75;;;;;;;;;;5053334;28;19912;-42
2021/12/06 07:47:25;;;;;;;23.98;14.85;;;;;;;;;;5035185;28;20033;-41
2021/12/06 07:49:51;;;;;;;28.10;15.52;;;;;;;;;;5053124;28;20032;-41
2021/12/06 07:52:17;;;;;;;23.88;14.20;;;;;;;;;;5053231;28;20027;-43
2021/12/06 07:54:42;;;;;;;25.23;13.57;;;;;;;;;;5053165;28;20035;-41
2021/12/06 07:57:09;;;;;;;22.67;13.75;;;;;;;;;;5051759;28;20032;-41
2021/12/06 07:59:37;;;;;;;21.27;13.00;;;;;;;;;;5053497;28;20021;-45
2021/12/06 08:02:05;;;;;;;20.00;11.93;;;;;;;;;;5054171;28;20485;-41
2021/12/06 08:04:31;;;;;;;19.05;12.48;;;;;;;;;;5054221;28;20032;-41
2021/12/06 08:06:56;;;;;;;18.75;12.10;;;;;;;;;;5054222;28;20488;-40
2021/12/06 08:09:22;;;;;;;18.77;11.48;;;;;;;;;;5054130;28;20112;-44
2021/12/06 08:11:48;;;;;;;18.52;12.23;;;;;;;;;;5054137;28;20116;-42
2021/12/06 08:14:13;;;;;;;15.05;10.45;;;;;;;;;;5054307;28;20082;-40
2021/12/06 08:16:43;;;;;;;17.73;11.30;;;;;;;;;;5036150;28;20420;-41
2021/12/06 08:19:12;;;;;;;17.88;11.85;;;;;;;;;;5053900;28;20017;-43
2021/12/06 08:21:39;;;;;;;17.15;11.95;;;;;;;;;;5053879;28;20033;-41
2021/12/06 08:24:06;;;;;;;16.15;10.55;;;;;;;;;;5054008;28;20381;-42
2021/12/06 08:26:36;;;;;;;14.40;9.70;;;;;;;;;;5054031;28;20028;-42
2021/12/06 08:29:06;;;;;;;21.70;10.93;;;;;;;;;;5053793;28;20545;-42
2021/12/06 08:31:32;;;;;;;17.65;11.27;;;;;;;;;;5053202;28;20036;-42
2021/12/06 08:33:57;;;;;;;18.52;12.40;;;;;;;;;;5053821;28;20124;-41
2021/12/06 08:36:25;;;;;;;16.35;10.88;;;;;;;;;;5053680;28;20104;-41
2021/12/06 08:38:52;;;;;;;17.23;11.70;;;;;;;;;;5053865;28;20033;-43
2021/12/06 08:41:26;;;;;;;16.60;11.27;;;;;;;;;;5053674;28;20031;-43
2021/12/06 08:43:55;;;;;;;19.75;11.02;;;;;;;;;;5053525;28;20037;-41
2021/12/06 08:46:28;;;;;;;17.05;9.60;;;;;;;;;;5051822;28;20025;-42
2021/12/06 08:48:55;;;;;;;16.25;10.73;;;;;;;;;;5051347;28;20025;-45
2021/12/06 08:51:33;;;;;;;18.10;10.90;;;;;;;;;;5051526;28;20071;-41
2021/12/06 08:54:04;;;;;;;15.05;10.65;;;;;;;;;;5051739;28;20044;-43
2021/12/06 08:56:31;;;;;;;17.77;11.50;;;;;;;;;;5053289;28;20025;-41
2021/12/06 08:58:58;;;;;;;17.83;11.48;;;;;;;;;;5053095;28;20132;-45
2021/12/06 09:01:25;;;;;;;17.95;11.95;;;;;;;;;;5053110;28;20086;-45
2021/12/06 09:03:51;;;;;;;16.70;12.10;;;;;;;;;;5053170;28;20063;-43
2021/12/06 09:06:16;;;;;;;15.93;11.35;;;;;;;;;;5051568;28;20531;-41
2021/12/06 09:08:42;;;;;;;16.23;10.75;;;;;;;;;;5051132;28;20371;-45
2021/12/06 09:11:09;;;;;;;15.20;10.23;;;;;;;;;;5034143;28;20067;-41
2021/12/06 09:13:36;;;;;;;15.10;10.00;;;;;;;;;;5052045;28;20079;-46
2021/12/06 09:16:04;;;;;;;13.13;9.65;;;;;;;;;;5052016;28;20024;-48
2021/12/06 09:18:34;;;;;;;14.00;9.43;;;;;;;;;;5035368;28;20025;-41
2021/12/06 09:21:02;;;;;;;17.45;10.10;;;;;;;;;;5052717;28;20037;-44
2021/12/06 09:23:28;;;;;;;13.88;9.35;;;;;;;;;;5053004;28;20029;-40
2021/12/06 09:25:54;;;;;;;12.35;8.48;;;;;;;;;;5052889;28;20412;-43
2021/12/06 09:28:20;;;;;;;13.55;9.52;;;;;;;;;;5052458;28;20025;-45
2021/12/06 09:30:46;;;;;;;15.15;9.32;;;;;;;;;;5052845;28;20020;-41
2021/12/06 09:33:14;;;;;;;13.27;8.75;;;;;;;;;;5052287;28;20170;-42
2021/12/06 09:35:43;;;;;;;14.02;9.68;;;;;;;;;;5052605;28;20044;-41
2021/12/06 09:38:12;;;;;;;15.47;9.23;;;;;;;;;;5051912;28;20061;-41
2021/12/06 09:40:41;;;;;;;13.82;9.55;;;;;;;;;;5051630;28;20033;-44
2021/12/06 09:43:10;;;;;;;16.45;11.43;;;;;;;;;;5051210;28;20021;-44
2021/12/06 09:45:35;;;;;;;18.13;11.45;;;;;;;;;;5050711;28;20029;-47
2021/12/06 09:48:03;;;;;;;14.35;9.95;;;;;;;;;;5046254;28;20028;-40
2021/12/06 09:50:42;;;;;;;17.15;9.13;;;;;;;;;;5049112;28;20028;-41
2021/12/06 09:53:12;;;;;;;15.30;10.13;;;;;;;;;;5050968;28;20060;-42
2021/12/06 09:55:40;;;;;;;15.02;10.52;;;;;;;;;;5049993;28;20504;-44
2021/12/06 09:58:07;;;;;;;13.50;9.07;;;;;;;;;;5050880;28;20056;-43
2021/12/06 10:00:41;;;;;;;16.92;10.20;;;;;;;;;;5050629;28;20025;-46
2021/12/06 10:03:07;;;;;;;20.42;10.98;;;;;;;;;;5050629;28;20584;-42
2021/12/06 10:05:32;;;;;;;20.98;11.85;;;;;;;;;;5050546;28;20493;-46
2021/12/06 10:07:59;;;;;;;17.00;10.55;;;;;;;;;;5050814;28;20029;-45
2021/12/06 10:10:27;;;;;;;17.63;10.77;;;;;;;;;;5032997;28;20431;-43
2021/12/06 10:12:54;;;;;;;19.52;11.02;;;;;;;;;;5050846;28;20093;-47
2021/12/06 10:15:25;;;;;;;19.98;10.88;;;;;;;;;;5050316;28;20481;-47
2021/12/06 10:17:52;;;;;;;17.67;10.57;;;;;;;;;;5050430;28;20032;-41
2021/12/06 10:20:19;;;;;;;20.73;11.57;;;;;;;;;;5050578;28;20017;-42
2021/12/06 10:22:44;;;;;;;20.08;11.93;;;;;;;;;;5050635;28;20021;-46
2021/12/06 10:25:10;;;;;;;17.20;11.65;;;;;;;;;;5050263;28;20565;-43
2021/12/06 10:27:35;;;;;;;18.88;11.45;;;;;;;;;;5050567;28;20029;-41
2021/12/06 10:30:09;;;;;;;20.27;11.88;;;;;;;;;;5050397;28;20071;-44
2021/12/06 10:32:40;;;;;;;21.00;11.65;;;;;;;;;;5050346;28;20466;-45
2021/12/06 10:35:11;;;;;;;21.40;11.88;;;;;;;;;;5050443;28;20055;-43
2021/12/06 10:37:45;;;;;;;23.83;13.80;;;;;;;;;;5050666;28;20021;-43
2021/12/06 10:40:23;;;;;;;20.05;11.50;;;;;;;;;;5049937;28;20032;-42
2021/12/06 10:42:50;;;;;;;23.23;13.02;;;;;;;;;;5050585;28;20037;-43
2021/12/06 10:45:20;;;;;;;22.10;13.43;;;;;;;;;;5050533;28;20025;-44
2021/12/06 10:48:04;;;;;;;23.48;13.07;;;;;;;;;;5050688;28;20033;-44
2021/12/06 10:50:30;;;;;;;35.08;17.63;;;;;;;;;;5050174;28;20029;-45
2021/12/06 10:52:57;;;;;;;21.55;11.80;;;;;;;;;;5050244;28;20112;-41
2021/12/06 10:55:25;;;;;;;24.73;14.32;;;;;;;;;;5051751;28;20048;-43
2021/12/06 10:57:54;;;;;;;25.38;14.68;;;;;;;;;;5054166;28;20090;-45
2021/12/06 11:00:47;;;;;;;25.05;14.02;;;;;;;;;;5054012;28;20688;-41
2021/12/06 11:03:33;;;;;;;23.00;14.10;;;;;;;;;;5054151;28;20035;-43
2021/12/06 11:06:03;;;;;;;23.83;14.40;;;;;;;;;;5053080;28;20033;-49
2021/12/06 11:08:29;;;;;;;;;;;;;;;;;;5054178;28;20071;-45
2021/12/06 11:11:00;;;;;;;22.55;13.00;;;;;;;;;;5054143;28;20288;-48
2021/12/06 11:13:33;;;;;;;25.92;14.93;;;;;;;;;;5053853;28;20028;-45
2021/12/06 11:16:12;;;;;;;26.42;15.73;;;;;;;;;;5053706;28;20039;-44
2021/12/06 11:18:45;;;;;;;30.55;15.98;;;;;;;;;;5053748;28;20390;-48
2021/12/06 11:21:36;;;;;;;26.63;15.50;;;;;;;;;;5053317;28;20032;-45
2021/12/06 11:24:21;;;;;;;25.63;14.20;;;;;;;;;;5053089;28;20036;-47
2021/12/06 11:26:58;;;;;;;26.50;14.90;;;;;;;;;;5053378;28;20037;-45
2021/12/06 11:29:45;;;;;;;25.58;15.00;;;;;;;;;;5053627;28;20086;-47
2021/12/06 11:32:21;;;;;;;23.05;13.10;;;;;;;;;;5053262;28;20036;-44
2021/12/06 11:34:54;;;;;;;24.42;14.65;;;;;;;;;;5035246;28;20060;-45
2021/12/06 11:37:33;;;;;;;23.08;14.05;;;;;;;;;;5053040;28;20025;-46
2021/12/06 11:40:19;;;;;;;20.90;13.25;;;;;;;;;;5053241;28;20052;-41
2021/12/06 11:42:51;;;;;;;20.83;12.85;;;;;;;;;;5053089;28;20096;-45
2021/12/06 11:45:30;;;;;;;20.98;13.48;;;;;;;;;;5052954;28;20533;-46
2021/12/06 11:48:05;;;;;;;21.63;13.68;;;;;;;;;;5053007;28;20025;-45
2021/12/06 11:50:32;;;;;;;22.75;14.10;;;;;;;;;;5053189;28;20031;-47
2021/12/06 11:53:08;;;;;;;24.63;13.85;;;;;;;;;;5053351;28;20055;-48
2021/12/06 11:55:36;;;;;;;21.20;13.93;;;;;;;;;;5052962;28;20057;-47
2021/12/06 11:58:03;;;;;;;20.40;12.68;;;;;;;;;;5052972;28;20029;-45
2021/12/06 12:00:30;;;;;;;19.95;12.95;;;;;;;;;;5052087;28;20079;-45
2021/12/06 12:02:59;;;;;;;19.50;12.20;;;;;;;;;;5052731;28;20021;-50
2021/12/06 12:05:29;;;;;;;19.95;12.90;;;;;;;;;;5052885;28;20096;-44
2021/12/06 12:08:13;;;;;;;18.45;12.25;;;;;;;;;;5051755;28;20025;-45
2021/12/06 12:10:49;;;;;;;19.48;12.68;;;;;;;;;;5053033;28;20029;-45
2021/12/06 12:13:35;;;;;;;19.05;12.50;;;;;;;;;;5052859;28;20028;-48
2021/12/06 12:16:07;;;;;;;23.70;13.80;;;;;;;;;;5052998;28;20103;-46
2021/12/06 12:18:38;;;;;;;21.10;13.10;;;;;;;;;;5052490;28;20478;-50
2021/12/06 12:21:05;;;;;;;21.52;13.10;;;;;;;;;;5052677;28;20067;-49
2021/12/06 12:23:32;;;;;;;23.00;14.80;;;;;;;;;;5052237;28;20057;-49
2021/12/06 12:26:09;;;;;;;20.58;13.55;;;;;;;;;;5033066;28;20021;-48
2021/12/06 12:28:39;;;;;;;19.60;12.63;;;;;;;;;;5051222;28;20103;-49
2021/12/06 12:31:09;;;;;;;19.13;13.05;;;;;;;;;;5050752;28;20037;-49
2021/12/06 12:33:36;;;;;;;21.87;13.40;;;;;;;;;;5050465;28;20049;-44
2021/12/06 12:36:07;;;;;;;19.73;12.98;;;;;;;;;;5050888;28;20025;-48
2021/12/06 12:38:34;;;;;;;20.05;11.98;;;;;;;;;;5050487;28;20078;-44
2021/12/06 12:41:07;;;;;;;21.42;13.25;;;;;;;;;;5050570;28;20411;-45
2021/12/06 12:43:41;;;;;;;20.17;12.80;;;;;;;;;;5050878;28;20060;-46
2021/12/06 12:46:34;;;;;;;20.88;13.20;;;;;;;;;;5050350;28;20073;-47
2021/12/06 12:49:09;;;;;;;19.30;13.55;;;;;;;;;;5050587;28;20029;-48
2021/12/06 12:51:44;;;;;;;20.58;13.27;;;;;;;;;;5050252;28;20032;-46
2021/12/06 12:54:24;;;;;;;19.90;13.57;;;;;;;;;;5050498;28;20437;-45
2021/12/06 12:56:57;;;;;;;;;;;;;;;;;;5050801;28;20075;-46
2021/12/06 12:59:31;;;;;;;17.75;11.60;;;;;;;;;;5050466;28;20288;-47
2021/12/06 13:02:35;;;;;;;18.38;12.10;;;;;;;;;;5050320;28;20075;-45
2021/12/06 13:05:05;;;;;;;22.48;13.18;;;;;;;;;;5050355;28;20496;-44
2021/12/06 13:07:38;;;;;;;21.83;14.10;;;;;;;;;;5050204;28;20033;-41
2021/12/06 13:10:22;;;;;;;24.40;13.57;;;;;;;;;;5050489;28;20162;-42
2021/12/06 13:12:58;;;;;;;21.90;13.38;;;;;;;;;;5049329;28;20036;-47
2021/12/06 13:15:43;;;;;;;20.60;13.05;;;;;;;;;;5032009;28;20036;-42
2021/12/06 13:18:31;;;;;;;19.00;13.07;;;;;;;;;;5031716;28;20079;-47
2021/12/06 13:20:57;;;;;;;20.27;12.52;;;;;;;;;;5050320;28;20033;-45
2021/12/06 13:23:25;;;;;;;19.83;13.10;;;;;;;;;;5049783;28;20051;-44
2021/12/06 13:26:05;;;;;;;19.58;12.45;;;;;;;;;;5049848;28;20059;-48
2021/12/06 13:29:00;;;;;;;21.65;13.40;;;;;;;;;;5049213;28;20070;-51
2021/12/06 13:31:26;;;;;;;18.42;12.70;;;;;;;;;;5049665;28;20032;-45
2021/12/06 13:33:52;;;;;;;18.48;12.77;;;;;;;;;;5049062;28;20053;-54
2021/12/06 13:36:45;;;;;;;24.73;12.55;;;;;;;;;;5049810;28;20462;-51
2021/12/06 13:39:29;;;;;;;19.13;12.75;;;;;;;;;;5049370;28;20419;-54
2021/12/06 13:41:55;;;;;;;24.55;13.90;;;;;;;;;;5051048;28;20029;-52
2021/12/06 13:44:22;;;;;;;23.13;13.70;;;;;;;;;;5051071;28;20028;-46
2021/12/06 13:46:52;;;;;;;20.67;13.57;;;;;;;;;;5051152;28;20091;-50
2021/12/06 13:49:20;;;;;;;23.83;13.65;;;;;;;;;;5050987;28;20486;-41
2021/12/06 13:51:57;;;;;;;21.13;12.68;;;;;;;;;;5050723;28;20029;-45
2021/12/06 13:54:30;;;;;;;16.95;11.45;;;;;;;;;;5050884;28;20032;-51
2021/12/06 13:56:59;;;;;;;19.08;11.23;;;;;;;;;;5032936;28;20067;-45
2021/12/06 13:59:27;;;;;;;21.08;12.32;;;;;;;;;;5050580;28;20420;-48
2021/12/06 14:01:56;;;;;;;21.38;14.23;;;;;;;;;;5050633;28;20028;-41
2021/12/06 14:04:24;;;;;;;24.23;13.52;;;;;;;;;;5050632;28;20117;-40
2021/12/06 14:06:55;;;;;;;16.42;11.98;;;;;;;;;;5050428;28;20067;-43
2021/12/06 14:09:28;;;;;;;;;;;;;;;;;;5051095;28;20497;-42
2021/12/06 14:11:56;;;;;;;17.10;11.32;;;;;;;;;;5050190;28;19913;-44
2021/12/06 14:14:24;;;;;;;20.63;11.75;;;;;;;;;;5050556;28;20037;-44
2021/12/06 14:16:51;;;;;;;18.30;11.38;;;;;;;;;;5050372;28;20155;-44
2021/12/06 14:19:17;;;;;;;18.00;11.68;;;;;;;;;;5050509;28;20075;-45
2021/12/06 14:21:46;;;;;;;16.70;11.27;;;;;;;;;;5050922;28;20044;-45
2021/12/06 14:24:12;;;;;;;24.00;14.70;;;;;;;;;;5050384;28;20029;-40
2021/12/06 14:26:43;;;;;;;18.65;11.82;;;;;;;;;;5050848;28;20024;-46
2021/12/06 14:29:16;;;;;;;18.63;12.13;;;;;;;;;;5050759;28;20049;-40
2021/12/06 14:31:44;;;;;;;15.35;10.63;;;;;;;;;;5054224;28;20017;-40
2021/12/06 14:34:11;;;;;;;18.02;11.55;;;;;;;;;;5054097;28;20060;-40
2021/12/06 14:36:37;;;;;;;18.38;11.52;;;;;;;;;;5036710;28;20025;-39
2021/12/06 14:39:26;;;;;;;18.25;11.70;;;;;;;;;;5054362;28;20489;-40
2021/12/06 14:42:08;;;;;;;22.63;12.02;;;;;;;;;;5036398;28;20025;-41
2021/12/06 14:44:39;;;;;;;17.55;11.30;;;;;;;;;;5054360;28;20025;-40
2021/12/06 14:47:07;;;;;;;18.63;10.98;;;;;;;;;;5054348;28;20025;-42